Mildmay, Canada
Current Conditions -  °F | °C
As of 7:00 PM on Wednesday 26 Nov 2014 (Local Time) from CYVV Reporting Station
Freezing Drizzle Freezing Drizzle  
Wind Chill: 22°   Ceiling: 3100
Heat Index: 30°   Visibility: 15mi
Dew Point: 25°   Wind: 9mph
Humidity: 80%   Direction: 40°NE
Pressure: 30.1"   Gusts: NA
Location:  44.03°N, 81.12°W
Report Text: CYVV 270000Z 04008KT 15SM -FZDZ OVC031 M01/M04 A3010 RMK SC8 SLP204
Loading
Personal Weather Stations






























Interactive Weather Map New forecast layout! Learn more

10-Day Weather Forecast

Advertisements
Track Severe Weather on mobile